sensor_id;sensor_type;location;lat;lon;timestamp;P1;durP1;ratioP1;P2;durP2;ratioP2
42682;SDS011;28293;50.930;3.464;2022-11-15T04:40:07;16.58;;;9.27;;
42682;SDS011;28293;50.930;3.464;2022-11-15T04:42:33;18.45;;;9.73;;
42682;SDS011;28293;50.930;3.464;2022-11-15T04:44:58;21.27;;;9.55;;
42682;SDS011;28293;50.930;3.464;2022-11-15T04:47:24;15.57;;;8.88;;
42682;SDS011;28293;50.930;3.464;2022-11-15T04:49:50;18.67;;;9.77;;
42682;SDS011;28293;50.930;3.464;2022-11-15T04:52:15;13.88;;;8.63;;
42682;SDS011;28293;50.930;3.464;2022-11-15T04:54:41;15.38;;;8.77;;
42682;SDS011;28293;50.930;3.464;2022-11-15T04:57:07;17.58;;;8.57;;
42682;SDS011;28293;50.930;3.464;2022-11-15T04:59:33;14.77;;;7.65;;
42682;SDS011;28293;50.930;3.464;2022-11-15T05:01:59;15.05;;;8.02;;
42682;SDS011;28293;50.930;3.464;2022-11-15T05:04:24;18.13;;;8.50;;
42682;SDS011;28293;50.930;3.464;2022-11-15T05:06:50;15.18;;;8.85;;
42682;SDS011;28293;50.930;3.464;2022-11-15T05:09:17;16.77;;;8.10;;
42682;SDS011;28293;50.930;3.464;2022-11-15T05:11:44;17.73;;;8.52;;
42682;SDS011;28293;50.930;3.464;2022-11-15T05:14:09;17.67;;;8.30;;
42682;SDS011;28293;50.930;3.464;2022-11-15T05:16:35;16.52;;;8.10;;
42682;SDS011;28293;50.930;3.464;2022-11-15T05:19:01;19.35;;;9.07;;
42682;SDS011;28293;50.930;3.464;2022-11-15T05:21:27;18.02;;;7.40;;
42682;SDS011;28293;50.930;3.464;2022-11-15T05:23:53;16.38;;;7.88;;
42682;SDS011;28293;50.930;3.464;2022-11-15T05:26:18;17.70;;;6.93;;
42682;SDS011;28293;50.930;3.464;2022-11-15T05:28:44;15.07;;;7.63;;
42682;SDS011;28293;50.930;3.464;2022-11-15T05:31:14;22.83;;;9.13;;
42682;SDS011;28293;50.930;3.464;2022-11-15T05:33:40;20.15;;;9.18;;
42682;SDS011;28293;50.930;3.464;2022-11-15T05:36:09;21.45;;;10.18;;
42682;SDS011;28293;50.930;3.464;2022-11-15T05:38:55;19.90;;;10.02;;
42682;SDS011;28293;50.930;3.464;2022-11-15T05:41:22;26.65;;;10.73;;
42682;SDS011;28293;50.930;3.464;2022-11-15T05:43:56;24.20;;;10.43;;
42682;SDS011;28293;50.930;3.464;2022-11-15T05:46:22;27.65;;;11.05;;
42682;SDS011;28293;50.930;3.464;2022-11-15T05:48:48;23.77;;;12.38;;
42682;SDS011;28293;50.930;3.464;2022-11-15T05:51:17;25.95;;;12.10;;
42682;SDS011;28293;50.930;3.464;2022-11-15T05:53:45;24.15;;;12.43;;
42682;SDS011;28293;50.930;3.464;2022-11-15T05:56:11;31.67;;;13.85;;
42682;SDS011;28293;50.930;3.464;2022-11-15T05:58:37;28.90;;;13.85;;
42682;SDS011;28293;50.930;3.464;2022-11-15T06:01:03;26.20;;;15.23;;
42682;SDS011;28293;50.930;3.464;2022-11-15T06:03:29;30.92;;;16.33;;
42682;SDS011;28293;50.930;3.464;2022-11-15T06:05:56;26.35;;;17.10;;
42682;SDS011;28293;50.930;3.464;2022-11-15T06:08:21;25.75;;;16.45;;
42682;SDS011;28293;50.930;3.464;2022-11-15T06:10:47;28.92;;;17.80;;
42682;SDS011;28293;50.930;3.464;2022-11-15T06:13:13;26.17;;;17.83;;
42682;SDS011;28293;50.930;3.464;2022-11-15T06:15:38;26.75;;;18.23;;
42682;SDS011;28293;50.930;3.464;2022-11-15T06:18:04;26.38;;;18.40;;
42682;SDS011;28293;50.930;3.464;2022-11-15T06:20:30;29.88;;;17.50;;
42682;SDS011;28293;50.930;3.464;2022-11-15T06:22:59;27.17;;;17.83;;
42682;SDS011;28293;50.930;3.464;2022-11-15T06:25:26;29.30;;;16.73;;
42682;SDS011;28293;50.930;3.464;2022-11-15T06:27:54;24.92;;;17.35;;
42682;SDS011;28293;50.930;3.464;2022-11-15T06:30:21;27.95;;;16.25;;
42682;SDS011;28293;50.930;3.464;2022-11-15T06:32:48;24.05;;;16.55;;
42682;SDS011;28293;50.930;3.464;2022-11-15T06:35:14;23.30;;;16.08;;
42682;SDS011;28293;50.930;3.464;2022-11-15T06:37:40;23.35;;;15.27;;
42682;SDS011;28293;50.930;3.464;2022-11-15T06:40:06;22.00;;;14.50;;
42682;SDS011;28293;50.930;3.464;2022-11-15T06:42:33;25.25;;;15.90;;
42682;SDS011;28293;50.930;3.464;2022-11-15T06:44:59;21.48;;;14.93;;
42682;SDS011;28293;50.930;3.464;2022-11-15T06:47:25;20.92;;;13.80;;
42682;SDS011;28293;50.930;3.464;2022-11-15T06:49:51;19.13;;;14.82;;
42682;SDS011;28293;50.930;3.464;2022-11-15T06:52:16;19.73;;;13.32;;
42682;SDS011;28293;50.930;3.464;2022-11-15T06:54:44;21.20;;;13.65;;
42682;SDS011;28293;50.930;3.464;2022-11-15T06:57:09;21.42;;;13.98;;
42682;SDS011;28293;50.930;3.464;2022-11-15T06:59:35;24.95;;;13.93;;
42682;SDS011;28293;50.930;3.464;2022-11-15T07:02:01;17.40;;;13.02;;
42682;SDS011;28293;50.930;3.464;2022-11-15T07:04:27;24.23;;;14.65;;
42682;SDS011;28293;50.930;3.464;2022-11-15T07:06:52;20.77;;;13.75;;
42682;SDS011;28293;50.930;3.464;2022-11-15T07:09:18;21.30;;;14.15;;
42682;SDS011;28293;50.930;3.464;2022-11-15T07:11:44;21.83;;;13.75;;
42682;SDS011;28293;50.930;3.464;2022-11-15T07:14:09;21.67;;;14.25;;
42682;SDS011;28293;50.930;3.464;2022-11-15T07:16:36;18.00;;;13.77;;
42682;SDS011;28293;50.930;3.464;2022-11-15T07:19:02;19.52;;;13.85;;
42682;SDS011;28293;50.930;3.464;2022-11-15T07:21:27;19.67;;;14.23;;
42682;SDS011;28293;50.930;3.464;2022-11-15T07:23:53;20.10;;;14.57;;
42682;SDS011;28293;50.930;3.464;2022-11-15T07:26:19;18.23;;;12.45;;
42682;SDS011;28293;50.930;3.464;2022-11-15T07:28:45;18.60;;;12.05;;
42682;SDS011;28293;50.930;3.464;2022-11-15T07:31:10;18.65;;;11.73;;
42682;SDS011;28293;50.930;3.464;2022-11-15T07:33:36;17.50;;;10.98;;
42682;SDS011;28293;50.930;3.464;2022-11-15T07:36:03;17.70;;;11.60;;
42682;SDS011;28293;50.930;3.464;2022-11-15T07:38:30;19.95;;;12.63;;
42682;SDS011;28293;50.930;3.464;2022-11-15T07:40:57;19.90;;;11.27;;
42682;SDS011;28293;50.930;3.464;2022-11-15T07:43:28;14.25;;;10.85;;
42682;SDS011;28293;50.930;3.464;2022-11-15T07:45:54;19.63;;;11.57;;
42682;SDS011;28293;50.930;3.464;2022-11-15T07:48:21;20.77;;;11.10;;
42682;SDS011;28293;50.930;3.464;2022-11-15T07:50:47;15.18;;;10.23;;
42682;SDS011;28293;50.930;3.464;2022-11-15T07:53:12;18.77;;;9.35;;
42682;SDS011;28293;50.930;3.464;2022-11-15T07:55:39;13.05;;;8.95;;
42682;SDS011;28293;50.930;3.464;2022-11-15T07:58:09;17.38;;;8.75;;
42682;SDS011;28293;50.930;3.464;2022-11-15T08:00:36;12.48;;;8.23;;
42682;SDS011;28293;50.930;3.464;2022-11-15T08:05:39;16.27;;;8.13;;
42682;SDS011;28293;50.930;3.464;2022-11-15T08:08:06;14.13;;;7.00;;
42682;SDS011;28293;50.930;3.464;2022-11-15T08:10:34;14.02;;;6.95;;
42682;SDS011;28293;50.930;3.464;2022-11-15T08:13:01;13.15;;;6.63;;
42682;SDS011;28293;50.930;3.464;2022-11-15T08:15:31;11.18;;;5.68;;
42682;SDS011;28293;50.930;3.464;2022-11-15T08:17:59;13.57;;;5.45;;
42682;SDS011;28293;50.930;3.464;2022-11-15T08:20:26;12.90;;;5.32;;
42682;SDS011;28293;50.930;3.464;2022-11-15T08:22:57;12.05;;;5.50;;
42682;SDS011;28293;50.930;3.464;2022-11-15T08:25:24;15.52;;;6.00;;
42682;SDS011;28293;50.930;3.464;2022-11-15T08:27:52;10.57;;;6.40;;
42682;SDS011;28293;50.930;3.464;2022-11-15T08:30:21;10.88;;;5.38;;
42682;SDS011;28293;50.930;3.464;2022-11-15T08:32:48;10.85;;;5.20;;
42682;SDS011;28293;50.930;3.464;2022-11-15T08:35:15;11.50;;;4.90;;
42682;SDS011;28293;50.930;3.464;2022-11-15T08:37:41;12.85;;;5.18;;
42682;SDS011;28293;50.930;3.464;2022-11-15T08:40:07;10.10;;;4.20;;
42682;SDS011;28293;50.930;3.464;2022-11-15T08:42:33;14.65;;;4.13;;
42682;SDS011;28293;50.930;3.464;2022-11-15T08:44:58;14.57;;;3.97;;
42682;SDS011;28293;50.930;3.464;2022-11-15T08:47:24;10.45;;;4.07;;
42682;SDS011;28293;50.930;3.464;2022-11-15T08:49:50;8.68;;;4.00;;
42682;SDS011;28293;50.930;3.464;2022-11-15T08:52:15;12.88;;;4.30;;
42682;SDS011;28293;50.930;3.464;2022-11-15T08:54:41;13.10;;;3.90;;
42682;SDS011;28293;50.930;3.464;2022-11-15T08:57:07;10.50;;;3.55;;
42682;SDS011;28293;50.930;3.464;2022-11-15T08:59:34;10.95;;;3.55;;
42682;SDS011;28293;50.930;3.464;2022-11-15T09:02:00;9.90;;;3.33;;
42682;SDS011;28293;50.930;3.464;2022-11-15T09:04:26;9.60;;;3.45;;
42682;SDS011;28293;50.930;3.464;2022-11-15T09:06:51;11.07;;;4.15;;
42682;SDS011;28293;50.930;3.464;2022-11-15T09:09:17;10.50;;;3.15;;
42682;SDS011;28293;50.930;3.464;2022-11-15T09:11:43;12.75;;;3.75;;
42682;SDS011;28293;50.930;3.464;2022-11-15T09:14:10;9.82;;;3.03;;
42682;SDS011;28293;50.930;3.464;2022-11-15T09:16:37;34.47;;;20.45;;
42682;SDS011;28293;50.930;3.464;2022-11-15T09:19:02;13.45;;;4.18;;
42682;SDS011;28293;50.930;3.464;2022-11-15T09:21:28;8.65;;;3.17;;
42682;SDS011;28293;50.930;3.464;2022-11-15T09:23:54;11.18;;;3.85;;
42682;SDS011;28293;50.930;3.464;2022-11-15T09:26:20;10.50;;;2.83;;
42682;SDS011;28293;50.930;3.464;2022-11-15T09:28:46;9.55;;;3.30;;
42682;SDS011;28293;50.930;3.464;2022-11-15T09:31:11;11.52;;;3.67;;
42682;SDS011;28293;50.930;3.464;2022-11-15T09:33:37;13.27;;;3.80;;
42682;SDS011;28293;50.930;3.464;2022-11-15T09:36:04;11.07;;;3.35;;
42682;SDS011;28293;50.930;3.464;2022-11-15T09:38:34;12.15;;;3.35;;
42682;SDS011;28293;50.930;3.464;2022-11-15T09:43:41;12.10;;;2.88;;
42682;SDS011;28293;50.930;3.464;2022-11-15T09:46:38;10.18;;;2.92;;
42682;SDS011;28293;50.930;3.464;2022-11-15T09:49:25;9.07;;;3.00;;
42682;SDS011;28293;50.930;3.464;2022-11-15T09:51:53;8.15;;;2.95;;
42682;SDS011;28293;50.930;3.464;2022-11-15T09:56:54;11.15;;;3.17;;
42682;SDS011;28293;50.930;3.464;2022-11-15T10:05:13;9.10;;;3.00;;
42682;SDS011;28293;50.930;3.464;2022-11-15T10:07:56;11.48;;;2.97;;
42682;SDS011;28293;50.930;3.464;2022-11-15T10:10:38;10.45;;;3.10;;
42682;SDS011;28293;50.930;3.464;2022-11-15T10:13:13;10.23;;;2.97;;
42682;SDS011;28293;50.930;3.464;2022-11-15T10:15:44;11.43;;;2.85;;
42682;SDS011;28293;50.930;3.464;2022-11-15T10:18:17;9.63;;;3.05;;
42682;SDS011;28293;50.930;3.464;2022-11-15T10:20:55;13.90;;;3.13;;
42682;SDS011;28293;50.930;3.464;2022-11-15T10:23:24;7.80;;;3.00;;
42682;SDS011;28293;50.930;3.464;2022-11-15T10:25:51;10.75;;;2.92;;
42682;SDS011;28293;50.930;3.464;2022-11-15T10:28:26;14.15;;;3.50;;
42682;SDS011;28293;50.930;3.464;2022-11-15T10:30:54;12.05;;;3.55;;
42682;SDS011;28293;50.930;3.464;2022-11-15T10:36:22;10.80;;;3.15;;
42682;SDS011;28293;50.930;3.464;2022-11-15T10:41:17;10.18;;;3.08;;
42682;SDS011;28293;50.930;3.464;2022-11-15T10:43:44;10.73;;;3.08;;
42682;SDS011;28293;50.930;3.464;2022-11-15T10:46:19;11.55;;;3.22;;
42682;SDS011;28293;50.930;3.464;2022-11-15T10:48:46;7.07;;;3.00;;
42682;SDS011;28293;50.930;3.464;2022-11-15T10:51:24;10.38;;;3.50;;
42682;SDS011;28293;50.930;3.464;2022-11-15T10:53:54;9.73;;;3.58;;
42682;SDS011;28293;50.930;3.464;2022-11-15T10:56:22;10.55;;;3.55;;
42682;SDS011;28293;50.930;3.464;2022-11-15T10:58:51;12.52;;;3.03;;
42682;SDS011;28293;50.930;3.464;2022-11-15T11:01:24;12.07;;;2.97;;
42682;SDS011;28293;50.930;3.464;2022-11-15T11:04:02;9.48;;;3.00;;
42682;SDS011;28293;50.930;3.464;2022-11-15T11:06:53;8.00;;;2.55;;
42682;SDS011;28293;50.930;3.464;2022-11-15T11:12:03;12.02;;;3.78;;
42682;SDS011;28293;50.930;3.464;2022-11-15T11:14:37;12.43;;;3.63;;
42682;SDS011;28293;50.930;3.464;2022-11-15T11:22:50;13.40;;;3.38;;
42682;SDS011;28293;50.930;3.464;2022-11-15T11:39:49;8.75;;;2.42;;
42682;SDS011;28293;50.930;3.464;2022-11-15T11:45:15;8.65;;;2.38;;
42682;SDS011;28293;50.930;3.464;2022-11-15T11:47:47;15.02;;;2.70;;
42682;SDS011;28293;50.930;3.464;2022-11-15T11:50:22;6.43;;;2.65;;
42682;SDS011;28293;50.930;3.464;2022-11-15T11:55:28;8.00;;;3.10;;
42682;SDS011;28293;50.930;3.464;2022-11-15T11:58:15;5.72;;;2.42;;
42682;SDS011;28293;50.930;3.464;2022-11-15T12:00:54;10.30;;;2.80;;
42682;SDS011;28293;50.930;3.464;2022-11-15T12:12:04;8.63;;;3.33;;
42682;SDS011;28293;50.930;3.464;2022-11-15T12:14:51;10.63;;;3.50;;
42682;SDS011;28293;50.930;3.464;2022-11-15T12:17:21;7.75;;;3.15;;
42682;SDS011;28293;50.930;3.464;2022-11-15T12:19:50;11.07;;;3.45;;
42682;SDS011;28293;50.930;3.464;2022-11-15T12:22:21;8.60;;;2.88;;
42682;SDS011;28293;50.930;3.464;2022-11-15T12:30:03;8.07;;;2.55;;
42682;SDS011;28293;50.930;3.464;2022-11-15T12:32:36;8.07;;;2.27;;
42682;SDS011;28293;50.930;3.464;2022-11-15T12:35:05;6.97;;;2.88;;
42682;SDS011;28293;50.930;3.464;2022-11-15T12:37:47;5.78;;;2.40;;
42682;SDS011;28293;50.930;3.464;2022-11-15T12:45:43;8.52;;;2.40;;
42682;SDS011;28293;50.930;3.464;2022-11-15T12:59:05;6.40;;;2.60;;
42682;SDS011;28293;50.930;3.464;2022-11-15T13:06:46;8.38;;;2.95;;
42682;SDS011;28293;50.930;3.464;2022-11-15T13:14:47;7.53;;;2.80;;
42682;SDS011;28293;50.930;3.464;2022-11-15T13:22:39;6.97;;;3.25;;
42682;SDS011;28293;50.930;3.464;2022-11-15T13:28:17;7.47;;;2.75;;
42682;SDS011;28293;50.930;3.464;2022-11-15T13:33:16;6.55;;;3.22;;
42682;SDS011;28293;50.930;3.464;2022-11-15T13:35:51;7.05;;;3.35;;
42682;SDS011;28293;50.930;3.464;2022-11-15T13:38:24;7.03;;;2.83;;
42682;SDS011;28293;50.930;3.464;2022-11-15T13:40:56;7.95;;;3.47;;
42682;SDS011;28293;50.930;3.464;2022-11-15T13:43:26;9.57;;;3.72;;
42682;SDS011;28293;50.930;3.464;2022-11-15T13:46:19;9.27;;;4.00;;
42682;SDS011;28293;50.930;3.464;2022-11-15T13:56:37;9.85;;;3.38;;
42682;SDS011;28293;50.930;3.464;2022-11-15T13:59:15;10.00;;;3.72;;
42682;SDS011;28293;50.930;3.464;2022-11-15T14:01:49;8.38;;;3.05;;
42682;SDS011;28293;50.930;3.464;2022-11-15T14:04:18;8.38;;;3.08;;
42682;SDS011;28293;50.930;3.464;2022-11-15T14:06:47;7.10;;;2.92;;
42682;SDS011;28293;50.930;3.464;2022-11-15T14:15:01;7.25;;;3.10;;
42682;SDS011;28293;50.930;3.464;2022-11-15T14:17:44;8.77;;;3.10;;
42682;SDS011;28293;50.930;3.464;2022-11-15T14:22:55;7.00;;;2.83;;
42682;SDS011;28293;50.930;3.464;2022-11-15T14:25:29;5.63;;;3.10;;
42682;SDS011;28293;50.930;3.464;2022-11-15T14:30:42;5.45;;;3.28;;
42682;SDS011;28293;50.930;3.464;2022-11-15T14:35:58;6.28;;;3.15;;
42682;SDS011;28293;50.930;3.464;2022-11-15T14:38:37;6.20;;;3.42;;
42682;SDS011;28293;50.930;3.464;2022-11-15T14:41:03;9.18;;;3.75;;
42682;SDS011;28293;50.930;3.464;2022-11-15T14:43:29;7.30;;;3.50;;
42682;SDS011;28293;50.930;3.464;2022-11-15T14:45:54;7.78;;;3.75;;
42682;SDS011;28293;50.930;3.464;2022-11-15T14:48:20;11.27;;;4.35;;
42682;SDS011;28293;50.930;3.464;2022-11-15T14:50:47;7.07;;;3.97;;
42682;SDS011;28293;50.930;3.464;2022-11-15T14:53:13;8.10;;;4.05;;
42682;SDS011;28293;50.930;3.464;2022-11-15T14:55:41;8.38;;;4.30;;
42682;SDS011;28293;50.930;3.464;2022-11-15T14:58:07;8.70;;;4.63;;
42682;SDS011;28293;50.930;3.464;2022-11-15T15:00:35;8.95;;;4.28;;
42682;SDS011;28293;50.930;3.464;2022-11-15T15:03:02;9.45;;;5.07;;
42682;SDS011;28293;50.930;3.464;2022-11-15T15:05:36;11.43;;;6.10;;
42682;SDS011;28293;50.930;3.464;2022-11-15T15:08:04;11.52;;;5.50;;
42682;SDS011;28293;50.930;3.464;2022-11-15T15:10:31;8.85;;;5.15;;
42682;SDS011;28293;50.930;3.464;2022-11-15T15:13:03;8.80;;;5.25;;
42682;SDS011;28293;50.930;3.464;2022-11-15T15:15:31;8.63;;;5.28;;
42682;SDS011;28293;50.930;3.464;2022-11-15T15:17:59;9.85;;;5.00;;
42682;SDS011;28293;50.930;3.464;2022-11-15T15:20:25;10.57;;;5.53;;
42682;SDS011;28293;50.930;3.464;2022-11-15T15:22:52;9.75;;;4.97;;
42682;SDS011;28293;50.930;3.464;2022-11-15T15:25:23;11.88;;;6.45;;
42682;SDS011;28293;50.930;3.464;2022-11-15T15:27:59;11.98;;;6.38;;
42682;SDS011;28293;50.930;3.464;2022-11-15T15:30:27;14.15;;;6.80;;
42682;SDS011;28293;50.930;3.464;2022-11-15T15:32:54;12.75;;;5.53;;
42682;SDS011;28293;50.930;3.464;2022-11-15T15:35:20;9.43;;;6.00;;
42682;SDS011;28293;50.930;3.464;2022-11-15T15:37:46;8.85;;;5.47;;
42682;SDS011;28293;50.930;3.464;2022-11-15T15:40:17;11.90;;;5.75;;
42682;SDS011;28293;50.930;3.464;2022-11-15T15:42:45;11.18;;;5.47;;
42682;SDS011;28293;50.930;3.464;2022-11-15T15:45:11;8.70;;;5.20;;
42682;SDS011;28293;50.930;3.464;2022-11-15T15:47:37;8.27;;;5.50;;
42682;SDS011;28293;50.930;3.464;2022-11-15T15:50:04;9.55;;;5.75;;
42682;SDS011;28293;50.930;3.464;2022-11-15T15:52:50;9.25;;;5.60;;
42682;SDS011;28293;50.930;3.464;2022-11-15T15:55:17;8.90;;;5.85;;
42682;SDS011;28293;50.930;3.464;2022-11-15T15:57:43;9.18;;;5.60;;
42682;SDS011;28293;50.930;3.464;2022-11-15T16:00:09;8.75;;;5.53;;
42682;SDS011;28293;50.930;3.464;2022-11-15T16:02:35;10.02;;;5.55;;
42682;SDS011;28293;50.930;3.464;2022-11-15T16:05:01;8.80;;;5.90;;
42682;SDS011;28293;50.930;3.464;2022-11-15T16:07:27;11.13;;;6.25;;
42682;SDS011;28293;50.930;3.464;2022-11-15T16:09:54;8.00;;;5.65;;
42682;SDS011;28293;50.930;3.464;2022-11-15T16:12:30;9.73;;;6.03;;
42682;SDS011;28293;50.930;3.464;2022-11-15T16:14:57;12.05;;;7.13;;
42682;SDS011;28293;50.930;3.464;2022-11-15T16:17:24;10.38;;;6.47;;
42682;SDS011;28293;50.930;3.464;2022-11-15T16:19:53;11.48;;;7.53;;
42682;SDS011;28293;50.930;3.464;2022-11-15T16:22:19;10.90;;;6.60;;
42682;SDS011;28293;50.930;3.464;2022-11-15T16:24:45;14.35;;;10.00;;
42682;SDS011;28293;50.930;3.464;2022-11-15T16:27:12;27.27;;;18.52;;
42682;SDS011;28293;50.930;3.464;2022-11-15T16:29:40;11.13;;;7.18;;
42682;SDS011;28293;50.930;3.464;2022-11-15T16:32:05;11.05;;;6.45;;
42682;SDS011;28293;50.930;3.464;2022-11-15T16:34:31;8.50;;;6.43;;
42682;SDS011;28293;50.930;3.464;2022-11-15T16:36:57;8.63;;;6.03;;
42682;SDS011;28293;50.930;3.464;2022-11-15T16:39:22;9.10;;;6.28;;
42682;SDS011;28293;50.930;3.464;2022-11-15T16:41:48;13.18;;;6.82;;
42682;SDS011;28293;50.930;3.464;2022-11-15T16:44:14;11.23;;;6.30;;
42682;SDS011;28293;50.930;3.464;2022-11-15T16:46:42;9.63;;;6.65;;
42682;SDS011;28293;50.930;3.464;2022-11-15T16:49:12;10.20;;;6.60;;
42682;SDS011;28293;50.930;3.464;2022-11-15T16:51:39;10.55;;;6.38;;
42682;SDS011;28293;50.930;3.464;2022-11-15T16:54:05;10.27;;;6.22;;
42682;SDS011;28293;50.930;3.464;2022-11-15T16:56:32;10.07;;;6.60;;
42682;SDS011;28293;50.930;3.464;2022-11-15T16:58:58;9.00;;;6.72;;
42682;SDS011;28293;50.930;3.464;2022-11-15T17:01:30;10.55;;;6.95;;
42682;SDS011;28293;50.930;3.464;2022-11-15T17:03:57;10.38;;;7.50;;
42682;SDS011;28293;50.930;3.464;2022-11-15T17:06:24;11.77;;;7.78;;
42682;SDS011;28293;50.930;3.464;2022-11-15T17:08:51;12.98;;;7.85;;
42682;SDS011;28293;50.930;3.464;2022-11-15T17:11:17;10.40;;;7.78;;
42682;SDS011;28293;50.930;3.464;2022-11-15T17:13:45;11.98;;;7.22;;
42682;SDS011;28293;50.930;3.464;2022-11-15T17:16:12;11.13;;;7.93;;
42682;SDS011;28293;50.930;3.464;2022-11-15T17:18:38;10.95;;;8.57;;
42682;SDS011;28293;50.930;3.464;2022-11-15T17:23:31;12.30;;;8.13;;
42682;SDS011;28293;50.930;3.464;2022-11-15T17:26:00;12.18;;;8.02;;
42682;SDS011;28293;50.930;3.464;2022-11-15T17:28:28;12.25;;;8.02;;
42682;SDS011;28293;50.930;3.464;2022-11-15T17:30:54;10.02;;;8.20;;
42682;SDS011;28293;50.930;3.464;2022-11-15T17:33:20;10.38;;;7.88;;
42682;SDS011;28293;50.930;3.464;2022-11-15T17:35:45;12.82;;;7.43;;
42682;SDS011;28293;50.930;3.464;2022-11-15T17:38:11;11.73;;;8.50;;
42682;SDS011;28293;50.930;3.464;2022-11-15T17:40:38;10.70;;;8.13;;
42682;SDS011;28293;50.930;3.464;2022-11-15T17:43:04;10.57;;;7.75;;
42682;SDS011;28293;50.930;3.464;2022-11-15T17:45:30;11.82;;;8.23;;
42682;SDS011;28293;50.930;3.464;2022-11-15T17:47:56;12.40;;;8.48;;
42682;SDS011;28293;50.930;3.464;2022-11-15T17:50:22;10.10;;;8.07;;
42682;SDS011;28293;50.930;3.464;2022-11-15T17:52:47;9.93;;;7.43;;
42682;SDS011;28293;50.930;3.464;2022-11-15T17:55:13;10.73;;;7.97;;
42682;SDS011;28293;50.930;3.464;2022-11-15T17:57:39;13.20;;;8.98;;
42682;SDS011;28293;50.930;3.464;2022-11-15T18:00:04;11.18;;;9.02;;
42682;SDS011;28293;50.930;3.464;2022-11-15T18:02:30;13.48;;;9.23;;
42682;SDS011;28293;50.930;3.464;2022-11-15T18:04:56;14.18;;;10.80;;
42682;SDS011;28293;50.930;3.464;2022-11-15T18:07:21;15.38;;;11.45;;
42682;SDS011;28293;50.930;3.464;2022-11-15T18:09:47;14.63;;;11.65;;
42682;SDS011;28293;50.930;3.464;2022-11-15T18:12:13;14.57;;;11.98;;
42682;SDS011;28293;50.930;3.464;2022-11-15T18:14:38;14.25;;;12.75;;
42682;SDS011;28293;50.930;3.464;2022-11-15T18:17:04;14.32;;;12.35;;
42682;SDS011;28293;50.930;3.464;2022-11-15T18:19:30;12.50;;;11.15;;
42682;SDS011;28293;50.930;3.464;2022-11-15T18:21:55;16.05;;;11.57;;
42682;SDS011;28293;50.930;3.464;2022-11-15T18:24:22;14.07;;;11.50;;
42682;SDS011;28293;50.930;3.464;2022-11-15T18:26:48;12.05;;;10.75;;
42682;SDS011;28293;50.930;3.464;2022-11-15T18:29:14;13.80;;;10.77;;
42682;SDS011;28293;50.930;3.464;2022-11-15T18:31:40;12.05;;;9.30;;
42682;SDS011;28293;50.930;3.464;2022-11-15T18:34:07;14.73;;;9.32;;
42682;SDS011;28293;50.930;3.464;2022-11-15T18:36:33;12.63;;;8.68;;
42682;SDS011;28293;50.930;3.464;2022-11-15T18:39:00;11.25;;;7.97;;
42682;SDS011;28293;50.930;3.464;2022-11-15T18:41:28;11.85;;;8.13;;
42682;SDS011;28293;50.930;3.464;2022-11-15T18:43:55;10.50;;;8.32;;
42682;SDS011;28293;50.930;3.464;2022-11-15T18:46:24;10.93;;;7.43;;
42682;SDS011;28293;50.930;3.464;2022-11-15T18:48:51;13.35;;;8.15;;
42682;SDS011;28293;50.930;3.464;2022-11-15T18:51:19;10.75;;;7.60;;
42682;SDS011;28293;50.930;3.464;2022-11-15T18:53:51;13.60;;;8.80;;
42682;SDS011;28293;50.930;3.464;2022-11-15T18:56:18;11.95;;;7.95;;
42682;SDS011;28293;50.930;3.464;2022-11-15T18:58:46;11.02;;;8.60;;
42682;SDS011;28293;50.930;3.464;2022-11-15T19:01:20;12.30;;;7.80;;
42682;SDS011;28293;50.930;3.464;2022-11-15T19:03:48;10.40;;;7.57;;
42682;SDS011;28293;50.930;3.464;2022-11-15T19:06:16;10.50;;;7.85;;
42682;SDS011;28293;50.930;3.464;2022-11-15T19:08:44;11.43;;;8.35;;
42682;SDS011;28293;50.930;3.464;2022-11-15T19:11:15;16.15;;;13.00;;
42682;SDS011;28293;50.930;3.464;2022-11-15T19:13:42;12.48;;;7.40;;
42682;SDS011;28293;50.930;3.464;2022-11-15T19:16:09;10.93;;;7.72;;
42682;SDS011;28293;50.930;3.464;2022-11-15T19:18:40;10.68;;;7.18;;
42682;SDS011;28293;50.930;3.464;2022-11-15T19:21:07;10.75;;;7.80;;
42682;SDS011;28293;50.930;3.464;2022-11-15T19:23:35;11.80;;;7.78;;
42682;SDS011;28293;50.930;3.464;2022-11-15T19:26:03;10.88;;;7.65;;
42682;SDS011;28293;50.930;3.464;2022-11-15T19:28:30;12.43;;;8.45;;
42682;SDS011;28293;50.930;3.464;2022-11-15T19:31:10;10.30;;;7.80;;
42682;SDS011;28293;50.930;3.464;2022-11-15T19:33:36;9.50;;;7.10;;
42682;SDS011;28293;50.930;3.464;2022-11-15T19:36:03;11.07;;;7.18;;
42682;SDS011;28293;50.930;3.464;2022-11-15T19:38:31;11.50;;;8.02;;
42682;SDS011;28293;50.930;3.464;2022-11-15T19:40:58;9.70;;;6.70;;
42682;SDS011;28293;50.930;3.464;2022-11-15T19:43:25;10.55;;;6.88;;
42682;SDS011;28293;50.930;3.464;2022-11-15T19:45:51;12.35;;;7.03;;
42682;SDS011;28293;50.930;3.464;2022-11-15T19:48:21;11.73;;;7.63;;
42682;SDS011;28293;50.930;3.464;2022-11-15T19:50:47;11.77;;;7.40;;
42682;SDS011;28293;50.930;3.464;2022-11-15T19:53:13;11.40;;;7.65;;
42682;SDS011;28293;50.930;3.464;2022-11-15T19:55:39;10.13;;;7.43;;
42682;SDS011;28293;50.930;3.464;2022-11-15T19:58:05;11.30;;;7.75;;
42682;SDS011;28293;50.930;3.464;2022-11-15T20:00:31;12.07;;;8.57;;
42682;SDS011;28293;50.930;3.464;2022-11-15T20:02:57;13.25;;;8.32;;
42682;SDS011;28293;50.930;3.464;2022-11-15T20:05:22;9.57;;;7.82;;
42682;SDS011;28293;50.930;3.464;2022-11-15T20:07:48;11.20;;;8.05;;
42682;SDS011;28293;50.930;3.464;2022-11-15T20:10:14;11.90;;;8.57;;
42682;SDS011;28293;50.930;3.464;2022-11-15T20:12:40;13.00;;;8.30;;
42682;SDS011;28293;50.930;3.464;2022-11-15T20:15:06;11.88;;;8.70;;
42682;SDS011;28293;50.930;3.464;2022-11-15T20:17:32;12.73;;;8.60;;
42682;SDS011;28293;50.930;3.464;2022-11-15T20:19:58;11.65;;;8.52;;
42682;SDS011;28293;50.930;3.464;2022-11-15T20:22:25;12.45;;;8.85;;
42682;SDS011;28293;50.930;3.464;2022-11-15T20:24:51;13.55;;;8.40;;
42682;SDS011;28293;50.930;3.464;2022-11-15T20:27:16;12.90;;;9.05;;
42682;SDS011;28293;50.930;3.464;2022-11-15T20:29:42;13.60;;;10.23;;
42682;SDS011;28293;50.930;3.464;2022-11-15T20:32:08;12.35;;;9.43;;
42682;SDS011;28293;50.930;3.464;2022-11-15T20:34:35;12.38;;;9.75;;
42682;SDS011;28293;50.930;3.464;2022-11-15T20:37:00;13.60;;;9.82;;
42682;SDS011;28293;50.930;3.464;2022-11-15T20:39:26;12.20;;;9.75;;
42682;SDS011;28293;50.930;3.464;2022-11-15T20:41:52;13.05;;;9.63;;
42682;SDS011;28293;50.930;3.464;2022-11-15T20:44:17;13.30;;;10.02;;
42682;SDS011;28293;50.930;3.464;2022-11-15T20:46:43;13.10;;;10.18;;
42682;SDS011;28293;50.930;3.464;2022-11-15T20:49:09;12.45;;;9.00;;
42682;SDS011;28293;50.930;3.464;2022-11-15T20:51:34;12.15;;;9.68;;
42682;SDS011;28293;50.930;3.464;2022-11-15T20:54:01;14.60;;;10.13;;
42682;SDS011;28293;50.930;3.464;2022-11-15T20:56:28;13.93;;;10.00;;
42682;SDS011;28293;50.930;3.464;2022-11-15T20:58:53;14.20;;;9.80;;
42682;SDS011;28293;50.930;3.464;2022-11-15T21:01:20;12.40;;;9.60;;
42682;SDS011;28293;50.930;3.464;2022-11-15T21:03:48;16.02;;;10.30;;
42682;SDS011;28293;50.930;3.464;2022-11-15T21:06:14;15.65;;;9.35;;
42682;SDS011;28293;50.930;3.464;2022-11-15T21:08:41;11.57;;;8.80;;
42682;SDS011;28293;50.930;3.464;2022-11-15T21:11:26;11.07;;;8.32;;
42682;SDS011;28293;50.930;3.464;2022-11-15T21:14:10;15.60;;;9.85;;
42682;SDS011;28293;50.930;3.464;2022-11-15T21:16:36;13.13;;;8.90;;
42682;SDS011;28293;50.930;3.464;2022-11-15T21:19:03;16.55;;;12.40;;
42682;SDS011;28293;50.930;3.464;2022-11-15T21:21:29;28.17;;;21.40;;
42682;SDS011;28293;50.930;3.464;2022-11-15T21:23:55;15.60;;;11.85;;